Terminal Aerodrome Forecast
Issued by NWS

Home | Current Version | Previous Version | Text Only | Print | Product List | Glossary On
Versions: 1 2 3 4 5 6 7 8 9 10 11 12 13 14 15 16 17
000
FTUS42 KMLB 030533
TAFSUA
TAF
KSUA 030533Z 0306/0406 VRB02KT P6SM BKN250
     FM031400 26006KT P6SM FEW030 SCT250
     FM031700 11008KT P6SM VCTS SCT030CB BKN120
     FM032300 21003KT P6SM SCT120=

USA.gov is the U.S. government's official web portal to all federal, state and local government web resources and services.